createdAt,value
2024-03-06T00:00:24.017Z,18.55
2024-03-06T00:03:27.631Z,17.57
2024-03-06T00:06:31.635Z,17.27
2024-03-06T00:09:36.057Z,18.48
2024-03-06T00:12:38.961Z,15.98
2024-03-06T00:15:43.341Z,17.07
2024-03-06T00:18:46.548Z,17.52
2024-03-06T00:21:49.654Z,17.80
2024-03-06T00:24:53.332Z,17.90
2024-03-06T00:27:56.385Z,18.05
2024-03-06T00:30:59.876Z,17.07
2024-03-06T00:34:03.030Z,17.85
2024-03-06T00:37:05.817Z,16.45
2024-03-06T00:40:12.312Z,17.85
2024-03-06T00:43:15.759Z,18.50
2024-03-06T00:46:18.885Z,16.75
2024-03-06T00:49:22.735Z,18.15
2024-03-06T00:52:27.005Z,17.48
2024-03-06T00:55:29.972Z,18.85
2024-03-06T00:58:33.397Z,17.10
2024-03-06T01:01:36.479Z,18.40
2024-03-06T01:04:39.888Z,18.52
2024-03-06T01:07:42.709Z,18.42
2024-03-06T01:10:46.384Z,20.80
2024-03-06T01:13:49.506Z,16.48
2024-03-06T01:16:53.119Z,19.15
2024-03-06T01:19:57.744Z,18.33
2024-03-06T01:23:00.950Z,17.90
2024-03-06T01:26:04.039Z,18.17
2024-03-06T01:29:07.395Z,19.00
2024-03-06T01:32:11.731Z,17.80
2024-03-06T01:35:16.301Z,19.60
2024-03-06T01:38:19.993Z,18.53
2024-03-06T01:41:23.300Z,19.80
2024-03-06T01:44:26.066Z,18.27
2024-03-06T01:47:30.138Z,18.25
2024-03-06T01:50:33.111Z,17.33
2024-03-06T01:53:37.564Z,17.70
2024-03-06T01:56:47.366Z,18.98
2024-03-06T01:59:50.780Z,18.90
2024-03-06T02:02:53.821Z,17.13
2024-03-06T02:06:00.059Z,19.27
2024-03-06T02:09:05.136Z,19.35
2024-03-06T02:12:13.753Z,16.30
2024-03-06T02:15:17.508Z,16.77
2024-03-06T02:18:21.594Z,17.08
2024-03-06T02:21:26.001Z,17.40
2024-03-06T02:24:29.101Z,17.95
2024-03-06T02:27:32.912Z,16.85
2024-03-06T02:30:38.775Z,17.17
2024-03-06T02:33:42.692Z,17.58
2024-03-06T02:36:46.158Z,17.92
2024-03-06T02:39:49.214Z,17.50
2024-03-06T02:42:52.593Z,17.27
2024-03-06T02:45:55.391Z,17.98
2024-03-06T02:48:58.657Z,18.30
2024-03-06T02:52:03.124Z,17.08
2024-03-06T02:55:06.763Z,17.70
2024-03-06T02:58:11.498Z,20.67
2024-03-06T03:01:17.597Z,19.58
2024-03-06T03:04:20.534Z,18.45
2024-03-06T03:07:27.194Z,25.27
2024-03-06T03:10:30.416Z,29.67
2024-03-06T03:13:33.731Z,24.25
2024-03-06T03:16:37.387Z,21.93
2024-03-06T03:19:41.636Z,20.67
2024-03-06T03:22:45.263Z,20.17
2024-03-06T03:25:48.791Z,19.05
2024-03-06T03:28:52.087Z,18.90
2024-03-06T03:31:55.167Z,20.85
2024-03-06T03:34:58.031Z,19.65
2024-03-06T03:38:01.220Z,19.85
2024-03-06T03:41:05.423Z,19.50
2024-03-06T03:44:09.046Z,19.92
2024-03-06T03:47:12.234Z,26.40
2024-03-06T03:50:17.468Z,27.98
2024-03-06T03:53:20.701Z,29.60
2024-03-06T03:56:23.978Z,26.83
2024-03-06T03:59:27.248Z,24.95
2024-03-06T04:02:30.358Z,21.27
2024-03-06T04:05:33.468Z,21.20
2024-03-06T04:08:39.086Z,21.48
2024-03-06T04:11:42.361Z,22.83
2024-03-06T04:14:46.019Z,20.15
2024-03-06T04:17:49.210Z,23.80
2024-03-06T04:20:52.117Z,25.25
2024-03-06T04:23:55.921Z,21.40
2024-03-06T04:26:58.647Z,21.42
2024-03-06T04:30:02.092Z,20.30
2024-03-06T04:33:07.915Z,21.80
2024-03-06T04:36:11.772Z,20.90
2024-03-06T04:39:14.936Z,19.90
2024-03-06T04:42:18.850Z,19.33
2024-03-06T04:45:21.973Z,19.30
2024-03-06T04:48:25.150Z,19.27
2024-03-06T04:51:28.021Z,18.87
2024-03-06T04:54:31.316Z,18.50
2024-03-06T04:57:37.017Z,18.95
2024-03-06T05:00:40.789Z,19.48
2024-03-06T06:00:42.457Z,26.67
2024-03-06T06:03:46.167Z,24.27
2024-03-06T06:06:49.848Z,26.87
2024-03-06T06:09:53.126Z,28.75
2024-03-06T06:12:56.100Z,23.43
2024-03-06T06:16:05.879Z,23.00
2024-03-06T06:19:08.901Z,23.90
2024-03-06T06:22:13.810Z,25.95
2024-03-06T06:25:17.535Z,26.58
2024-03-06T06:28:20.801Z,24.50
2024-03-06T06:31:23.789Z,24.70
2024-03-06T06:34:29.875Z,29.65
2024-03-06T06:37:32.862Z,23.73
2024-03-06T06:40:35.926Z,25.80
2024-03-06T06:43:38.716Z,25.17
2024-03-06T06:46:44.176Z,26.73
2024-03-06T06:49:47.220Z,24.35
2024-03-06T06:52:51.455Z,22.67
2024-03-06T06:55:54.224Z,24.33
2024-03-06T06:58:58.912Z,24.15
2024-03-06T07:02:03.761Z,24.15
2024-03-06T07:05:07.978Z,22.75
2024-03-06T07:08:11.352Z,23.97
2024-03-06T07:11:14.922Z,25.83
2024-03-06T07:14:17.834Z,24.00
2024-03-06T07:17:21.186Z,20.88
2024-03-06T07:20:24.267Z,22.17
2024-03-06T07:23:27.559Z,22.23
2024-03-06T07:26:31.493Z,21.27
2024-03-06T07:29:35.594Z,22.90
2024-03-06T07:32:38.680Z,23.65
2024-03-06T07:35:43.093Z,19.90
2024-03-06T07:38:46.050Z,21.90
2024-03-06T07:41:49.406Z,24.58
2024-03-06T07:44:53.786Z,22.35
2024-03-06T07:47:59.441Z,20.80
2024-03-06T07:51:02.540Z,20.60
2024-03-06T07:54:06.464Z,22.87
2024-03-06T07:57:11.238Z,25.20
2024-03-06T08:00:21.193Z,23.30
2024-03-06T08:03:25.943Z,23.92
2024-03-06T08:06:30.780Z,25.58
2024-03-06T08:09:34.356Z,27.53
2024-03-06T08:12:37.774Z,23.07
2024-03-06T08:15:41.418Z,17.58
2024-03-06T08:18:44.266Z,16.58
2024-03-06T08:21:47.592Z,19.50
2024-03-06T08:24:53.160Z,17.10
2024-03-06T08:27:56.604Z,20.90
2024-03-06T08:30:59.716Z,18.87
2024-03-06T08:34:03.200Z,18.83
2024-03-06T08:37:07.161Z,19.20
2024-03-06T08:40:16.776Z,18.07
2024-03-06T08:43:20.861Z,19.70
2024-03-06T08:46:25.310Z,19.95
2024-03-06T08:49:28.422Z,17.12
2024-03-06T08:52:34.528Z,16.60
2024-03-06T08:55:37.577Z,16.80
2024-03-06T08:58:41.585Z,17.33
2024-03-06T09:01:44.724Z,16.52
2024-03-06T09:04:48.706Z,17.80
2024-03-06T09:07:51.898Z,18.08
2024-03-06T09:10:55.767Z,17.13
2024-03-06T09:13:58.980Z,17.00
2024-03-06T09:17:02.764Z,16.70
2024-03-06T09:20:12.139Z,15.88
2024-03-06T09:23:17.565Z,17.10
2024-03-06T09:26:21.897Z,18.40
2024-03-06T09:29:25.373Z,18.00
2024-03-06T09:32:28.428Z,12.32
2024-03-06T09:35:34.234Z,17.35
2024-03-06T09:38:38.960Z,17.25
2024-03-06T09:41:42.617Z,16.73
2024-03-06T09:44:46.363Z,17.63
2024-03-06T09:47:54.664Z,18.05
2024-03-06T09:51:04.759Z,18.12
2024-03-06T09:54:10.964Z,13.05
2024-03-06T09:57:15.166Z,18.47
2024-03-06T10:00:21.147Z,17.97
2024-03-06T10:03:24.742Z,18.83
2024-03-06T10:06:28.227Z,13.93
2024-03-06T10:09:34.642Z,17.08
2024-03-06T10:12:37.991Z,15.93
2024-03-06T10:15:41.415Z,15.27
2024-03-06T10:18:44.371Z,14.95
2024-03-06T10:21:52.834Z,16.15
2024-03-06T10:24:58.598Z,17.25
2024-03-06T10:28:13.228Z,15.00
2024-03-06T10:31:16.112Z,15.67
2024-03-06T10:34:19.492Z,15.63
2024-03-06T10:37:23.646Z,15.68
2024-03-06T10:40:30.742Z,17.35
2024-03-06T10:43:33.949Z,16.13
2024-03-06T10:46:38.554Z,16.07
2024-03-06T10:49:44.190Z,17.10
2024-03-06T10:52:48.698Z,16.65
2024-03-06T10:55:53.081Z,15.27
2024-03-06T10:58:59.484Z,16.90
2024-03-06T11:02:03.406Z,16.80
2024-03-06T11:05:08.579Z,16.50
2024-03-06T11:08:16.718Z,15.65
2024-03-06T11:11:26.983Z,15.70
2024-03-06T11:14:32.887Z,15.80
2024-03-06T11:17:36.275Z,14.77
2024-03-06T11:20:39.078Z,13.45
2024-03-06T11:24:13.219Z,12.77
2024-03-06T11:27:16.581Z,13.55
2024-03-06T11:30:22.647Z,14.87
2024-03-06T11:33:29.871Z,13.40
2024-03-06T11:36:35.707Z,13.13
2024-03-06T11:39:40.825Z,12.95
2024-03-06T11:42:43.897Z,13.20
2024-03-06T11:45:47.832Z,13.27
2024-03-06T11:48:57.593Z,10.53
2024-03-06T11:52:06.315Z,12.55
2024-03-06T11:55:10.649Z,13.68
2024-03-06T11:58:13.916Z,11.00
2024-03-06T12:01:20.130Z,12.93
2024-03-06T12:04:25.501Z,12.37
2024-03-06T12:07:28.961Z,14.25
2024-03-06T12:10:32.110Z,14.68
2024-03-06T12:13:36.279Z,13.68
2024-03-06T12:16:39.465Z,14.60
2024-03-06T12:19:45.282Z,15.13
2024-03-06T12:22:53.129Z,13.60
2024-03-06T12:26:12.881Z,12.40
2024-03-06T12:29:20.665Z,12.73
2024-03-06T12:32:28.357Z,12.50
2024-03-06T12:35:32.238Z,13.17
2024-03-06T12:38:35.346Z,13.77
2024-03-06T12:41:39.197Z,13.15
2024-03-06T12:44:42.374Z,12.60
2024-03-06T12:47:50.039Z,11.47
2024-03-06T12:50:55.569Z,12.03
2024-03-06T12:53:58.749Z,10.70
2024-03-06T12:57:01.734Z,12.88
2024-03-06T13:00:08.252Z,12.57
2024-03-06T13:03:11.850Z,13.60
2024-03-06T13:06:15.198Z,13.40
2024-03-06T13:09:18.576Z,10.07
2024-03-06T13:12:21.955Z,12.57
2024-03-06T13:15:24.830Z,12.02
2024-03-06T13:18:28.484Z,11.40
2024-03-06T13:21:31.409Z,10.30
2024-03-06T13:24:35.118Z,9.70
2024-03-06T13:27:38.394Z,9.18
2024-03-06T13:30:41.580Z,10.18
2024-03-06T13:33:44.650Z,9.90
2024-03-06T13:36:48.273Z,9.77
2024-03-06T13:39:51.938Z,10.05
2024-03-06T13:42:55.343Z,9.80
2024-03-06T13:45:58.829Z,9.65
2024-03-06T13:49:02.166Z,9.93
2024-03-06T13:52:06.644Z,9.87
2024-03-06T13:55:10.644Z,8.13
2024-03-06T13:58:14.042Z,9.80
2024-03-06T14:01:17.468Z,9.52
2024-03-06T14:04:21.008Z,9.43
2024-03-06T14:07:24.548Z,9.10
2024-03-06T14:10:28.116Z,8.02
2024-03-06T14:13:31.004Z,7.85
2024-03-06T14:16:34.321Z,9.95
2024-03-06T14:19:37.310Z,10.53
2024-03-06T14:22:40.413Z,9.70
2024-03-06T14:25:43.496Z,9.20
2024-03-06T14:28:46.563Z,10.00
2024-03-06T14:31:49.387Z,9.70
2024-03-06T14:34:52.681Z,8.70
2024-03-06T14:37:55.748Z,7.80
2024-03-06T14:40:58.952Z,7.97
2024-03-06T14:44:01.990Z,8.90
2024-03-06T14:47:07.477Z,7.68
2024-03-06T14:50:13.478Z,8.97
2024-03-06T14:53:17.182Z,8.47
2024-03-06T14:56:23.084Z,9.13
2024-03-06T14:59:26.559Z,10.75
2024-03-06T15:02:30.621Z,8.93
2024-03-06T15:05:34.167Z,9.03
2024-03-06T15:08:37.484Z,9.07
2024-03-06T15:11:41.670Z,8.88
2024-03-06T15:14:47.213Z,9.82
2024-03-06T15:17:53.593Z,9.52
2024-03-06T15:20:56.434Z,9.27
2024-03-06T15:24:00.520Z,9.37
2024-03-06T15:27:05.764Z,9.48
2024-03-06T15:30:09.942Z,8.52
2024-03-06T15:33:13.553Z,8.50
2024-03-06T15:36:17.859Z,8.37
2024-03-06T15:39:20.913Z,8.23
2024-03-06T15:42:25.377Z,8.60
2024-03-06T15:45:28.429Z,8.07
2024-03-06T15:48:33.982Z,8.52
2024-03-06T15:51:38.445Z,8.30
2024-03-06T15:54:41.749Z,9.10
2024-03-06T15:57:45.354Z,8.52
2024-03-06T16:00:48.459Z,9.02
2024-03-06T16:03:53.920Z,8.73
2024-03-06T16:07:00.243Z,9.07
2024-03-06T16:10:04.278Z,8.80
2024-03-06T16:13:08.391Z,9.07
2024-03-06T16:16:11.555Z,11.02
2024-03-06T16:19:14.707Z,9.50
2024-03-06T16:22:18.095Z,11.60
2024-03-06T16:25:21.204Z,11.30
2024-03-06T16:28:25.093Z,9.00
2024-03-06T16:31:28.474Z,12.40
2024-03-06T16:34:34.029Z,11.90
2024-03-06T16:37:37.028Z,12.10
2024-03-06T16:40:40.742Z,12.07
2024-03-06T16:43:43.846Z,12.25
2024-03-06T16:46:46.970Z,11.60
2024-03-06T16:49:50.100Z,11.40
2024-03-06T16:52:53.809Z,12.33
2024-03-06T16:55:56.701Z,11.93
2024-03-06T16:59:00.137Z,9.93
2024-03-06T17:02:03.373Z,12.30
2024-03-06T17:05:08.279Z,12.50
2024-03-06T17:08:13.285Z,13.20
2024-03-06T17:11:18.740Z,13.73
2024-03-06T17:14:21.805Z,12.48
2024-03-06T17:17:25.246Z,12.15
2024-03-06T17:20:28.230Z,12.35
2024-03-06T17:23:33.418Z,10.43
2024-03-06T17:26:39.698Z,10.93
2024-03-06T17:29:43.978Z,11.07
2024-03-06T17:32:46.989Z,11.80
2024-03-06T17:35:50.913Z,10.52
2024-03-06T17:38:54.128Z,9.90
2024-03-06T17:41:57.568Z,10.20
2024-03-06T17:45:01.744Z,6.43
2024-03-06T17:48:05.596Z,12.27
2024-03-06T17:51:08.795Z,8.88
2024-03-06T17:54:16.261Z,9.87
2024-03-06T17:57:19.146Z,10.23
2024-03-06T18:00:22.520Z,9.48
2024-03-06T18:03:27.716Z,8.63
2024-03-06T18:06:30.801Z,9.48
2024-03-06T18:09:34.135Z,9.43
2024-03-06T18:12:37.100Z,9.00
2024-03-06T18:15:41.333Z,6.32
2024-03-06T18:18:44.257Z,9.98
2024-03-06T18:21:48.439Z,9.55
2024-03-06T18:24:51.885Z,23.23
2024-03-06T18:27:55.248Z,14.33
2024-03-06T18:31:00.340Z,11.07
2024-03-06T18:34:04.518Z,9.75
2024-03-06T18:37:08.224Z,9.75
2024-03-06T18:40:14.057Z,10.10
2024-03-06T18:43:17.335Z,10.17
2024-03-06T18:46:20.864Z,10.05
2024-03-06T18:49:23.750Z,10.38
2024-03-06T18:52:26.883Z,9.80
2024-03-06T18:55:30.420Z,10.90
2024-03-06T18:58:34.553Z,10.73
2024-03-06T19:01:40.417Z,9.68
2024-03-06T19:04:44.328Z,10.50
2024-03-06T19:07:48.716Z,9.80
2024-03-06T19:10:53.089Z,10.40
2024-03-06T19:13:56.130Z,10.63
2024-03-06T19:16:59.361Z,10.13
2024-03-06T19:20:02.546Z,10.45
2024-03-06T19:23:07.450Z,10.70
2024-03-06T19:26:10.774Z,9.57
2024-03-06T19:29:14.209Z,10.52
2024-03-06T19:32:17.682Z,11.48
2024-03-06T19:35:23.936Z,11.68
2024-03-06T19:38:28.341Z,11.12
2024-03-06T19:41:31.901Z,11.30
2024-03-06T19:44:35.322Z,11.80
2024-03-06T19:47:40.203Z,11.07
2024-03-06T19:50:43.629Z,11.60
2024-03-06T19:53:49.408Z,10.77
2024-03-06T19:56:53.787Z,10.20
2024-03-06T20:00:02.902Z,11.97
2024-03-06T20:03:15.343Z,14.13
2024-03-06T20:06:19.246Z,14.82
2024-03-06T20:09:23.502Z,18.35
2024-03-06T20:12:28.025Z,14.97
2024-03-06T20:15:38.640Z,15.83
2024-03-06T20:18:43.028Z,17.40
2024-03-06T20:21:49.156Z,16.92
2024-03-06T20:24:53.023Z,15.90
2024-03-06T20:27:56.554Z,16.87
2024-03-06T20:31:03.090Z,15.15
2024-03-06T20:34:08.320Z,15.07
2024-03-06T20:37:12.272Z,16.37
2024-03-06T20:40:16.015Z,15.40
2024-03-06T20:43:23.103Z,15.13
2024-03-06T20:46:26.724Z,15.15
2024-03-06T20:49:30.645Z,15.95
2024-03-06T20:52:34.091Z,16.83
2024-03-06T20:55:37.977Z,15.52
2024-03-06T20:58:41.226Z,15.50
2024-03-06T21:01:46.917Z,14.15
2024-03-06T21:04:50.245Z,14.43
2024-03-06T21:07:53.806Z,16.33
2024-03-06T21:10:58.059Z,15.43
2024-03-06T21:14:01.920Z,16.03
2024-03-06T21:17:08.807Z,15.82
2024-03-06T21:20:12.994Z,15.05
2024-03-06T21:23:16.005Z,14.55
2024-03-06T21:26:19.577Z,15.60
2024-03-06T21:29:23.120Z,16.45
2024-03-06T21:32:26.627Z,13.95
2024-03-06T21:35:30.241Z,14.32
2024-03-06T21:38:34.015Z,14.10
2024-03-06T21:41:40.342Z,14.38
2024-03-06T21:44:44.318Z,14.20
2024-03-06T21:47:47.240Z,14.30
2024-03-06T21:50:51.919Z,14.07
2024-03-06T21:53:54.857Z,13.00
2024-03-06T21:56:57.915Z,14.20
2024-03-06T22:00:01.261Z,13.52
2024-03-06T22:03:06.342Z,14.20
2024-03-06T22:06:09.840Z,14.32
2024-03-06T22:09:12.837Z,15.20
2024-03-06T22:12:16.411Z,16.40
2024-03-06T22:15:19.642Z,17.65
2024-03-06T22:18:23.409Z,17.50
2024-03-06T22:21:26.227Z,16.67
2024-03-06T22:24:29.648Z,16.17
2024-03-06T22:27:32.509Z,16.23
2024-03-06T22:30:35.812Z,14.73
2024-03-06T22:33:38.725Z,14.90
2024-03-06T22:36:42.810Z,15.70
2024-03-06T22:39:46.538Z,15.77
2024-03-06T22:42:49.885Z,14.18
2024-03-06T22:45:52.732Z,14.37
2024-03-06T22:48:57.365Z,15.98
2024-03-06T22:52:01.054Z,15.35
2024-03-06T22:55:07.904Z,14.30
2024-03-06T22:58:10.975Z,14.60
2024-03-06T23:01:14.075Z,14.07
2024-03-06T23:04:19.217Z,15.40
2024-03-06T23:07:23.390Z,15.23
2024-03-06T23:10:27.301Z,15.82
2024-03-06T23:13:30.668Z,16.23
2024-03-06T23:16:33.942Z,15.63
2024-03-06T23:19:37.055Z,15.70
2024-03-06T23:22:40.056Z,15.95
2024-03-06T23:25:43.618Z,14.75
2024-03-06T23:28:46.409Z,13.70
2024-03-06T23:31:49.454Z,15.05
2024-03-06T23:34:52.226Z,14.13
2024-03-06T23:37:55.421Z,16.33
2024-03-06T23:40:58.304Z,15.70
2024-03-06T23:44:01.820Z,14.52
2024-03-06T23:47:04.870Z,18.08
2024-03-06T23:50:09.292Z,18.80
2024-03-06T23:53:12.585Z,18.58
2024-03-06T23:56:16.585Z,19.60
2024-03-06T23:59:20.325Z,17.80
